Azad Kashmir Weather



Azad Kashmir's Current Weather

Temprature 25.565o clear sky

clear sky

Rain: 0 %

Min Temprature25.565o
Max Temprature25.565o
Humidity46
Wind Speed1.82 m/h
Sun Rise05:49:15
Sun Set18:08:23
Current Time: 18-Sep-2019 16:33:00
Lat/Lon: 33.95, 73.91




Azad Kashmir's Geo Location



Azad Kashmir's Weather Forecast

Time Overall Temp Min Temp Max Temp Humidity Wind Speed Rain
18-Sep-2019 (Wed)
17:00:00 clear sky 23.840 23.840 25.565 46 1.82 m/h 0 %
20:00:00 clear sky 17.350 17.350 18.644 57 2.05 m/h 0 %
23:00:00 clear sky 16.450 16.450 17.315 60 2.5 m/h 0 %
19-Sep-2019 (Thu)
02:00:00 clear sky 16.020 16.020 16.450 61 1.61 m/h 0 %
05:00:00 clear sky 15.550 15.550 15.550 60 1.01 m/h 0 %
08:00:00 clear sky 20.550 20.550 20.550 57 0.75 m/h 0 %
11:00:00 clear sky 25.750 25.750 25.750 46 1.83 m/h 0 %
14:00:00 few clouds 27.250 27.250 27.250 41 2.81 m/h 0 %
17:00:00 scattered clouds 25.050 25.050 25.050 51 1.45 m/h 0 %
20:00:00 clear sky 18.870 18.870 18.870 66 1.59 m/h 0 %
23:00:00 clear sky 17.538 17.538 17.538 69 1.71 m/h 0 %
20-Sep-2019 (Fri)
02:00:00 clear sky 16.456 16.456 16.456 70 1.46 m/h 0 %
05:00:00 clear sky 15.753 15.753 15.753 73 0.41 m/h 0 %
08:00:00 clear sky 20.750 20.750 20.750 61 1 m/h 0 %
11:00:00 light rain 25.150 25.150 25.150 50 2.17 m/h 19 %
14:00:00 light rain 24.950 24.950 24.950 52 1.6 m/h 106 %
17:00:00 light rain 23.950 23.950 23.950 59 1.61 m/h 31 %
20:00:00 clear sky 18.450 18.450 18.450 77 1.41 m/h 0 %
23:00:00 clear sky 17.350 17.350 17.350 79 1.86 m/h 0 %
21-Sep-2019 (Sat)
02:00:00 clear sky 16.250 16.250 16.250 82 1.64 m/h 0 %
05:00:00 clear sky 15.764 15.764 15.764 80 0.88 m/h 0 %
08:00:00 clear sky 20.650 20.650 20.650 64 1.34 m/h 0 %
11:00:00 clear sky 25.950 25.950 25.950 48 1.98 m/h 0 %
14:00:00 light rain 25.050 25.050 25.050 55 2.36 m/h 31 %
17:00:00 light rain 24.250 24.250 24.250 62 1.48 m/h 13 %
20:00:00 clear sky 18.850 18.850 18.850 80 1.17 m/h 0 %
23:00:00 clear sky 17.835 17.835 17.835 84 1.78 m/h 0 %
22-Sep-2019 (Sun)
02:00:00 clear sky 17.050 17.050 17.050 85 1.54 m/h 0 %
05:00:00 clear sky 16.626 16.626 16.626 82 1.4 m/h 0 %
08:00:00 clear sky 21.892 21.892 21.892 63 0.58 m/h 0 %
11:00:00 clear sky 26.303 26.303 26.303 48 2.27 m/h 0 %
14:00:00 light rain 25.450 25.450 25.450 55 2.09 m/h 13 %
17:00:00 light rain 25.250 25.250 25.250 56 1.67 m/h 6 %
20:00:00 few clouds 19.425 19.425 19.425 74 1.18 m/h 0 %
23:00:00 clear sky 18.382 18.382 18.382 77 1.51 m/h 0 %
23-Sep-2019 (Mon)
02:00:00 clear sky 17.503 17.503 17.503 81 1.26 m/h 0 %
05:00:00 clear sky 16.877 16.877 16.877 81 0.82 m/h 0 %
08:00:00 clear sky 21.744 21.744 21.744 66 0.71 m/h 0 %
11:00:00 light rain 26.177 26.177 26.177 52 2.3 m/h 19 %
14:00:00 light rain 24.904 24.904 24.904 61 1.86 m/h 38 %

Famous Cities (61)